sensor_id;sensor_type;location;lat;lon;timestamp;P1;durP1;ratioP1;P2;durP2;ratioP2
70457;SDS011;57919;56.194;95.716;2022-11-20T00:08:22;1.33;;;0.37;;
70457;SDS011;57919;56.194;95.716;2022-11-20T00:18:24;2.25;;;0.80;;
70457;SDS011;57919;56.194;95.716;2022-11-20T00:28:26;2.27;;;0.70;;
70457;SDS011;57919;56.194;95.716;2022-11-20T00:38:31;2.27;;;0.80;;
70457;SDS011;57919;56.194;95.716;2022-11-20T00:48:33;3.75;;;1.92;;
70457;SDS011;57919;56.194;95.716;2022-11-20T00:58:36;4.00;;;0.97;;
70457;SDS011;57919;56.194;95.716;2022-11-20T01:08:40;4.87;;;2.00;;
70457;SDS011;57919;56.194;95.716;2022-11-20T01:18:44;6.28;;;1.67;;
70457;SDS011;57919;56.194;95.716;2022-11-20T01:28:47;4.68;;;1.58;;
70457;SDS011;57919;56.194;95.716;2022-11-20T01:38:57;3.37;;;1.40;;
70457;SDS011;57919;56.194;95.716;2022-11-20T01:59:23;19.63;;;8.55;;
70457;SDS011;57919;56.194;95.716;2022-11-20T02:09:29;2.63;;;1.23;;
70457;SDS011;57919;56.194;95.716;2022-11-20T02:19:32;5.97;;;1.97;;
70457;SDS011;57919;56.194;95.716;2022-11-20T02:39:39;9.23;;;3.37;;
70457;SDS011;57919;56.194;95.716;2022-11-20T02:49:41;19.00;;;6.57;;
70457;SDS011;57919;56.194;95.716;2022-11-20T02:59:43;30.80;;;9.90;;
70457;SDS011;57919;56.194;95.716;2022-11-20T03:09:45;17.90;;;6.10;;
70457;SDS011;57919;56.194;95.716;2022-11-20T03:19:47;36.80;;;12.30;;
70457;SDS011;57919;56.194;95.716;2022-11-20T03:29:49;17.13;;;5.77;;
70457;SDS011;57919;56.194;95.716;2022-11-20T03:39:51;22.92;;;7.03;;
70457;SDS011;57919;56.194;95.716;2022-11-20T03:49:53;18.30;;;8.90;;
70457;SDS011;57919;56.194;95.716;2022-11-20T03:59:55;25.20;;;6.50;;
70457;SDS011;57919;56.194;95.716;2022-11-20T04:09:59;71.90;;;22.15;;
70457;SDS011;57919;56.194;95.716;2022-11-20T04:20:01;31.67;;;10.37;;
70457;SDS011;57919;56.194;95.716;2022-11-20T04:30:04;27.77;;;16.27;;
70457;SDS011;57919;56.194;95.716;2022-11-20T04:40:07;22.50;;;10.82;;
70457;SDS011;57919;56.194;95.716;2022-11-20T04:50:10;45.40;;;20.63;;
70457;SDS011;57919;56.194;95.716;2022-11-20T05:00:11;80.07;;;38.30;;
70457;SDS011;57919;56.194;95.716;2022-11-20T05:10:14;68.00;;;26.20;;
70457;SDS011;57919;56.194;95.716;2022-11-20T05:20:17;90.68;;;33.00;;
70457;SDS011;57919;56.194;95.716;2022-11-20T05:30:19;72.90;;;26.60;;
70457;SDS011;57919;56.194;95.716;2022-11-20T05:40:21;55.70;;;19.87;;
70457;SDS011;57919;56.194;95.716;2022-11-20T05:50:23;89.65;;;36.03;;
70457;SDS011;57919;56.194;95.716;2022-11-20T06:00:24;236.23;;;54.20;;
70457;SDS011;57919;56.194;95.716;2022-11-20T06:10:26;53.63;;;21.57;;
70457;SDS011;57919;56.194;95.716;2022-11-20T06:20:28;13.60;;;5.28;;
70457;SDS011;57919;56.194;95.716;2022-11-20T06:30:30;12.57;;;4.90;;
70457;SDS011;57919;56.194;95.716;2022-11-20T06:40:32;14.73;;;5.93;;
70457;SDS011;57919;56.194;95.716;2022-11-20T06:50:38;9.63;;;4.70;;
70457;SDS011;57919;56.194;95.716;2022-11-20T07:00:40;19.08;;;7.10;;
70457;SDS011;57919;56.194;95.716;2022-11-20T07:10:42;4.73;;;1.70;;
70457;SDS011;57919;56.194;95.716;2022-11-20T07:20:44;6.63;;;1.60;;
70457;SDS011;57919;56.194;95.716;2022-11-20T07:30:52;3.35;;;1.13;;
70457;SDS011;57919;56.194;95.716;2022-11-20T07:40:56;3.47;;;1.07;;
70457;SDS011;57919;56.194;95.716;2022-11-20T07:50:59;5.07;;;1.83;;
70457;SDS011;57919;56.194;95.716;2022-11-20T08:01:04;13.50;;;3.72;;
70457;SDS011;57919;56.194;95.716;2022-11-20T08:11:11;4.63;;;1.27;;
70457;SDS011;57919;56.194;95.716;2022-11-20T08:21:31;12.47;;;3.17;;
70457;SDS011;57919;56.194;95.716;2022-11-20T08:31:33;10.87;;;4.40;;
70457;SDS011;57919;56.194;95.716;2022-11-20T08:41:35;24.30;;;8.23;;
70457;SDS011;57919;56.194;95.716;2022-11-20T08:51:38;19.10;;;7.07;;
70457;SDS011;57919;56.194;95.716;2022-11-20T09:01:40;29.03;;;11.80;;
70457;SDS011;57919;56.194;95.716;2022-11-20T09:11:47;9.20;;;4.30;;
70457;SDS011;57919;56.194;95.716;2022-11-20T09:21:51;14.27;;;2.67;;
70457;SDS011;57919;56.194;95.716;2022-11-20T09:31:53;36.10;;;12.43;;
70457;SDS011;57919;56.194;95.716;2022-11-20T10:02:47;31.83;;;12.97;;
70457;SDS011;57919;56.194;95.716;2022-11-20T10:24:06;38.72;;;14.95;;
70457;SDS011;57919;56.194;95.716;2022-11-20T10:44:57;22.67;;;9.00;;
70457;SDS011;57919;56.194;95.716;2022-11-20T11:15:38;24.63;;;8.83;;
70457;SDS011;57919;56.194;95.716;2022-11-20T11:25:55;10.05;;;4.60;;
70457;SDS011;57919;56.194;95.716;2022-11-20T11:36:00;10.87;;;4.50;;
70457;SDS011;57919;56.194;95.716;2022-11-20T11:46:34;14.77;;;4.57;;
70457;SDS011;57919;56.194;95.716;2022-11-20T11:56:36;6.33;;;2.40;;
70457;SDS011;57919;56.194;95.716;2022-11-20T12:06:41;7.20;;;3.97;;
70457;SDS011;57919;56.194;95.716;2022-11-20T12:16:46;66.27;;;21.57;;
70457;SDS011;57919;56.194;95.716;2022-11-20T13:08:55;12.82;;;5.07;;
70457;SDS011;57919;56.194;95.716;2022-11-20T13:19:03;14.48;;;4.47;;
70457;SDS011;57919;56.194;95.716;2022-11-20T13:29:16;2.70;;;1.23;;
70457;SDS011;57919;56.194;95.716;2022-11-20T13:39:27;7.00;;;2.43;;
70457;SDS011;57919;56.194;95.716;2022-11-20T13:49:39;5.15;;;1.70;;
70457;SDS011;57919;56.194;95.716;2022-11-20T13:59:55;3.17;;;1.23;;
70457;SDS011;57919;56.194;95.716;2022-11-20T14:09:59;4.03;;;1.80;;
70457;SDS011;57919;56.194;95.716;2022-11-20T14:20:03;9.48;;;3.10;;
70457;SDS011;57919;56.194;95.716;2022-11-20T14:30:17;4.27;;;1.13;;
70457;SDS011;57919;56.194;95.716;2022-11-20T14:40:33;2.67;;;1.27;;
70457;SDS011;57919;56.194;95.716;2022-11-20T14:50:37;6.15;;;2.13;;
70457;SDS011;57919;56.194;95.716;2022-11-20T15:00:41;9.88;;;3.10;;
70457;SDS011;57919;56.194;95.716;2022-11-20T15:10:50;3.60;;;1.03;;
70457;SDS011;57919;56.194;95.716;2022-11-20T15:20:54;1.07;;;0.47;;
70457;SDS011;57919;56.194;95.716;2022-11-20T15:30:57;2.20;;;0.68;;
70457;SDS011;57919;56.194;95.716;2022-11-20T15:40:59;46.93;;;18.00;;
70457;SDS011;57919;56.194;95.716;2022-11-20T16:01:13;7.00;;;4.35;;
70457;SDS011;57919;56.194;95.716;2022-11-20T16:11:17;7.40;;;2.97;;
70457;SDS011;57919;56.194;95.716;2022-11-20T16:21:19;10.67;;;1.67;;
70457;SDS011;57919;56.194;95.716;2022-11-20T16:31:21;5.28;;;2.88;;
70457;SDS011;57919;56.194;95.716;2022-11-20T16:41:24;1.27;;;0.60;;
70457;SDS011;57919;56.194;95.716;2022-11-20T16:51:27;7.67;;;2.87;;
70457;SDS011;57919;56.194;95.716;2022-11-20T17:01:31;7.10;;;2.13;;
70457;SDS011;57919;56.194;95.716;2022-11-20T17:11:33;8.25;;;4.20;;
70457;SDS011;57919;56.194;95.716;2022-11-20T17:21:35;7.53;;;3.00;;
70457;SDS011;57919;56.194;95.716;2022-11-20T17:31:38;21.13;;;10.10;;
70457;SDS011;57919;56.194;95.716;2022-11-20T17:41:40;15.48;;;6.47;;
70457;SDS011;57919;56.194;95.716;2022-11-20T17:51:42;18.53;;;6.97;;
70457;SDS011;57919;56.194;95.716;2022-11-20T18:01:44;42.43;;;13.17;;
70457;SDS011;57919;56.194;95.716;2022-11-20T18:11:47;71.53;;;17.63;;
70457;SDS011;57919;56.194;95.716;2022-11-20T18:21:49;42.80;;;16.73;;
70457;SDS011;57919;56.194;95.716;2022-11-20T18:31:51;33.47;;;9.23;;
70457;SDS011;57919;56.194;95.716;2022-11-20T18:41:54;34.90;;;8.57;;
70457;SDS011;57919;56.194;95.716;2022-11-20T18:52:14;12.45;;;6.45;;
70457;SDS011;57919;56.194;95.716;2022-11-20T19:02:17;34.00;;;14.77;;
70457;SDS011;57919;56.194;95.716;2022-11-20T19:12:20;16.53;;;6.73;;
70457;SDS011;57919;56.194;95.716;2022-11-20T19:22:25;25.00;;;7.93;;
70457;SDS011;57919;56.194;95.716;2022-11-20T19:32:27;8.67;;;2.70;;
70457;SDS011;57919;56.194;95.716;2022-11-20T19:42:29;8.37;;;2.30;;
70457;SDS011;57919;56.194;95.716;2022-11-20T19:52:32;10.15;;;2.88;;
70457;SDS011;57919;56.194;95.716;2022-11-20T20:02:36;6.47;;;3.00;;
70457;SDS011;57919;56.194;95.716;2022-11-20T20:12:38;3.87;;;2.33;;
70457;SDS011;57919;56.194;95.716;2022-11-20T20:22:40;3.67;;;0.93;;
70457;SDS011;57919;56.194;95.716;2022-11-20T20:32:42;5.95;;;1.50;;
70457;SDS011;57919;56.194;95.716;2022-11-20T20:42:43;12.33;;;4.07;;
70457;SDS011;57919;56.194;95.716;2022-11-20T20:52:45;7.93;;;2.63;;
70457;SDS011;57919;56.194;95.716;2022-11-20T21:02:47;6.57;;;1.67;;
70457;SDS011;57919;56.194;95.716;2022-11-20T21:12:49;9.57;;;3.30;;
70457;SDS011;57919;56.194;95.716;2022-11-20T21:22:51;3.13;;;1.23;;
70457;SDS011;57919;56.194;95.716;2022-11-20T21:32:54;11.70;;;3.28;;
70457;SDS011;57919;56.194;95.716;2022-11-20T21:42:56;51.42;;;25.02;;
70457;SDS011;57919;56.194;95.716;2022-11-20T21:52:58;15.73;;;6.87;;
70457;SDS011;57919;56.194;95.716;2022-11-20T22:02:59;15.17;;;4.83;;
70457;SDS011;57919;56.194;95.716;2022-11-20T22:13:01;2.22;;;0.80;;
70457;SDS011;57919;56.194;95.716;2022-11-20T22:23:22;4.70;;;1.60;;
70457;SDS011;57919;56.194;95.716;2022-11-20T22:33:24;2.00;;;0.73;;
70457;SDS011;57919;56.194;95.716;2022-11-20T22:43:27;7.80;;;2.53;;
70457;SDS011;57919;56.194;95.716;2022-11-20T22:53:39;2.07;;;0.90;;
70457;SDS011;57919;56.194;95.716;2022-11-20T23:03:43;2.67;;;0.63;;
70457;SDS011;57919;56.194;95.716;2022-11-20T23:13:55;16.25;;;4.60;;
70457;SDS011;57919;56.194;95.716;2022-11-20T23:23:59;3.70;;;1.80;;
70457;SDS011;57919;56.194;95.716;2022-11-20T23:34:01;2.97;;;1.20;;
70457;SDS011;57919;56.194;95.716;2022-11-20T23:44:04;1.43;;;0.50;;
70457;SDS011;57919;56.194;95.716;2022-11-20T23:54:06;3.80;;;1.05;;
